createdAt,value
2022-12-25T00:01:26.046Z,-4.89
2022-12-25T00:03:53.877Z,-4.86
2022-12-25T00:06:21.558Z,-4.84
2022-12-25T00:08:49.209Z,-4.80
2022-12-25T00:11:20.927Z,-4.78
2022-12-25T00:13:50.292Z,-4.77
2022-12-25T00:16:19.215Z,-4.74
2022-12-25T00:18:47.281Z,-4.72
2022-12-25T00:21:15.406Z,-4.70
2022-12-25T00:23:43.240Z,-4.69
2022-12-25T00:26:12.155Z,-4.67
2022-12-25T00:28:40.140Z,-4.66
2022-12-25T00:31:10.293Z,-4.68
2022-12-25T00:33:38.158Z,-4.73
2022-12-25T00:36:06.805Z,-4.74
2022-12-25T00:38:35.206Z,-4.78
2022-12-25T00:41:05.577Z,-4.79
2022-12-25T00:43:32.277Z,-4.75
2022-12-25T00:46:00.755Z,-4.76
2022-12-25T00:48:30.529Z,-4.77
2022-12-25T00:50:58.721Z,-4.79
2022-12-25T00:53:27.025Z,-4.73
2022-12-25T00:55:55.155Z,-4.70
2022-12-25T00:58:22.846Z,-4.71
2022-12-25T01:00:50.681Z,-4.69
2022-12-25T01:03:18.772Z,-4.68
2022-12-25T01:05:55.703Z,-4.65
2022-12-25T01:08:23.379Z,-4.63
2022-12-25T01:10:53.823Z,-4.63
2022-12-25T01:13:21.657Z,-4.65
2022-12-25T01:15:49.445Z,-4.68
2022-12-25T01:18:17.181Z,-4.73
2022-12-25T01:20:44.835Z,-4.79
2022-12-25T01:23:14.002Z,-4.77
2022-12-25T01:25:41.887Z,-4.79
2022-12-25T01:28:10.002Z,-4.80
2022-12-25T01:30:37.736Z,-4.82
2022-12-25T01:33:05.563Z,-4.87
2022-12-25T01:35:33.299Z,-4.93
2022-12-25T01:38:00.966Z,-4.95
2022-12-25T01:40:29.984Z,-5.05
2022-12-25T01:42:57.656Z,-5.16
2022-12-25T01:45:41.613Z,-5.23
2022-12-25T01:48:12.923Z,-5.27
2022-12-25T01:50:41.977Z,-5.30
2022-12-25T01:53:09.809Z,-5.33
2022-12-25T01:55:39.517Z,-5.35
2022-12-25T01:58:07.449Z,-5.35
2022-12-25T02:00:35.364Z,-5.39
2022-12-25T02:03:03.311Z,-5.38
2022-12-25T02:05:32.101Z,-5.47
2022-12-25T02:08:02.264Z,-5.56
2022-12-25T02:10:30.007Z,-5.63
2022-12-25T02:12:59.311Z,-5.64
2022-12-25T02:15:31.077Z,-5.69
2022-12-25T02:18:01.126Z,-5.69
2022-12-25T02:20:52.556Z,-5.68
2022-12-25T02:23:40.816Z,-5.67
2022-12-25T02:26:16.162Z,-5.74
2022-12-25T02:28:46.471Z,-5.81
2022-12-25T02:31:15.877Z,-5.83
2022-12-25T02:34:04.251Z,-5.87
2022-12-25T02:36:34.559Z,-5.95
2022-12-25T02:39:20.756Z,-5.99
2022-12-25T02:41:50.091Z,-5.90
2022-12-25T02:44:38.918Z,-5.83
2022-12-25T02:47:25.314Z,-5.76
2022-12-25T02:50:12.159Z,-5.70
2022-12-25T02:52:58.742Z,-5.67
2022-12-25T02:55:47.681Z,-5.63
2022-12-25T02:58:35.049Z,-5.66
2022-12-25T03:01:22.634Z,-5.63
2022-12-25T03:04:09.911Z,-5.58
2022-12-25T03:06:44.244Z,-5.53
2022-12-25T03:09:31.278Z,-5.48
2022-12-25T03:12:02.636Z,-5.50
2022-12-25T03:14:47.496Z,-5.45
2022-12-25T03:17:16.579Z,-5.52
2022-12-25T03:20:10.179Z,-5.49
2022-12-25T03:22:55.075Z,-5.54
2022-12-25T03:25:39.871Z,-5.53
2022-12-25T03:28:07.672Z,-5.51
2022-12-25T03:30:55.900Z,-5.49
2022-12-25T03:33:45.269Z,-5.55
2022-12-25T03:36:16.825Z,-5.58
2022-12-25T03:39:01.579Z,-5.56
2022-12-25T03:41:53.434Z,-5.62
2022-12-25T03:44:41.334Z,-5.63
2022-12-25T03:47:36.483Z,-5.68
2022-12-25T03:50:27.910Z,-5.77
2022-12-25T03:53:14.747Z,-5.85
2022-12-25T03:56:00.835Z,-5.84
2022-12-25T03:58:46.247Z,-5.78
2022-12-25T04:01:31.815Z,-5.78
2022-12-25T04:04:17.364Z,-5.73
2022-12-25T04:07:04.052Z,-5.69
2022-12-25T04:09:48.921Z,-5.64
2022-12-25T04:12:34.012Z,-5.65
2022-12-25T04:15:19.242Z,-5.59
2022-12-25T04:18:04.360Z,-5.57
2022-12-25T04:20:49.207Z,-5.54
2022-12-25T04:23:35.723Z,-5.52
2022-12-25T04:26:20.732Z,-5.47
2022-12-25T04:29:05.750Z,-5.48
2022-12-25T04:31:50.494Z,-5.45
2022-12-25T04:34:35.962Z,-5.41
2022-12-25T04:37:03.679Z,-5.40
2022-12-25T04:39:32.760Z,-5.38
2022-12-25T04:42:01.140Z,-5.37
2022-12-25T04:44:28.881Z,-5.38
2022-12-25T04:46:56.664Z,-5.36
2022-12-25T04:49:24.377Z,-5.33
2022-12-25T04:51:52.031Z,-5.35
2022-12-25T04:54:19.732Z,-5.29
2022-12-25T04:56:48.859Z,-5.31
2022-12-25T04:59:16.487Z,-5.28
2022-12-25T05:01:44.279Z,-5.31
2022-12-25T05:04:12.146Z,-5.27
2022-12-25T05:06:40.349Z,-5.25
2022-12-25T05:09:08.078Z,-5.22
2022-12-25T05:11:35.747Z,-5.19
2022-12-25T05:14:04.851Z,-5.20
2022-12-25T05:16:32.585Z,-5.19
2022-12-25T05:19:00.260Z,-5.21
2022-12-25T05:21:28.000Z,-5.24
2022-12-25T05:23:55.616Z,-5.22
2022-12-25T05:26:24.033Z,-5.25
2022-12-25T05:28:54.863Z,-5.23
2022-12-25T05:31:24.323Z,-5.21
2022-12-25T05:33:52.322Z,-5.20
2022-12-25T05:36:20.246Z,-5.21
2022-12-25T05:38:47.996Z,-5.19
2022-12-25T05:41:15.715Z,-5.19
2022-12-25T05:43:43.428Z,-5.22
2022-12-25T05:46:11.462Z,-5.22
2022-12-25T05:48:40.596Z,-5.20
2022-12-25T05:51:09.361Z,-5.19
2022-12-25T05:53:37.574Z,-5.20
2022-12-25T05:56:06.262Z,-5.20
2022-12-25T05:58:35.097Z,-5.15
2022-12-25T06:01:03.271Z,-5.13
2022-12-25T06:03:31.481Z,-5.14
2022-12-25T06:06:00.622Z,-5.10
2022-12-25T06:08:28.266Z,-5.07
2022-12-25T06:10:55.875Z,-5.07
2022-12-25T06:13:23.480Z,-5.04
2022-12-25T06:15:51.171Z,-5.01
2022-12-25T06:18:18.866Z,-5.01
2022-12-25T06:20:46.620Z,-4.99
2022-12-25T06:23:15.799Z,-4.98
2022-12-25T06:25:43.604Z,-4.98
2022-12-25T06:28:11.261Z,-4.94
2022-12-25T06:30:38.885Z,-4.97
2022-12-25T06:33:06.568Z,-4.99
2022-12-25T06:35:34.245Z,-5.00
2022-12-25T06:38:01.978Z,-5.07
2022-12-25T06:40:30.987Z,-5.11
2022-12-25T06:42:58.590Z,-5.09
2022-12-25T06:45:26.249Z,-5.20
2022-12-25T06:47:54.035Z,-5.18
2022-12-25T06:50:22.012Z,-5.17
2022-12-25T06:52:49.635Z,-5.13
2022-12-25T06:55:17.351Z,-5.06
2022-12-25T06:57:46.407Z,-5.11
2022-12-25T07:00:14.655Z,-5.12
2022-12-25T07:02:45.177Z,-5.14
2022-12-25T07:05:12.899Z,-5.12
2022-12-25T07:07:40.562Z,-5.14
2022-12-25T07:10:08.847Z,-5.16
2022-12-25T07:12:36.699Z,-5.16
2022-12-25T07:15:06.262Z,-5.11
2022-12-25T07:17:35.282Z,-5.12
2022-12-25T07:20:03.080Z,-5.12
2022-12-25T07:22:31.136Z,-5.14
2022-12-25T07:24:58.846Z,-5.12
2022-12-25T07:27:26.986Z,-5.15
2022-12-25T07:29:54.930Z,-5.27
2022-12-25T07:32:24.274Z,-5.25
2022-12-25T07:34:51.944Z,-5.30
2022-12-25T07:37:19.653Z,-5.29
2022-12-25T07:39:47.313Z,-5.34
2022-12-25T07:42:15.921Z,-5.30
2022-12-25T07:44:45.777Z,-5.29
2022-12-25T07:47:15.420Z,-5.27
2022-12-25T07:49:44.400Z,-5.24
2022-12-25T07:52:12.158Z,-5.24
2022-12-25T07:54:39.819Z,-5.20
2022-12-25T07:57:08.986Z,-5.21
2022-12-25T07:59:36.716Z,-5.20
2022-12-25T08:02:04.617Z,-5.16
2022-12-25T08:04:32.576Z,-5.13
2022-12-25T08:07:01.683Z,-5.18
2022-12-25T08:09:29.521Z,-5.26
2022-12-25T08:11:57.194Z,-5.24
2022-12-25T08:14:24.855Z,-5.20
2022-12-25T08:16:52.557Z,-5.19
2022-12-25T08:19:20.440Z,-5.09
2022-12-25T08:21:48.120Z,-5.04
2022-12-25T08:24:17.166Z,-5.07
2022-12-25T08:26:44.915Z,-5.07
2022-12-25T08:29:12.547Z,-4.99
2022-12-25T08:31:46.107Z,-4.98
2022-12-25T08:34:14.777Z,-4.99
2022-12-25T08:36:42.613Z,-4.95
2022-12-25T08:39:10.244Z,-4.94
2022-12-25T08:41:39.299Z,-4.89
2022-12-25T08:44:07.403Z,-4.84
2022-12-25T08:46:35.256Z,-4.78
2022-12-25T08:49:02.933Z,-4.76
2022-12-25T08:51:30.607Z,-4.75
2022-12-25T08:53:59.912Z,-4.71
2022-12-25T08:56:28.844Z,-4.69
2022-12-25T08:58:58.146Z,-4.67
2022-12-25T09:01:25.922Z,-4.61
2022-12-25T09:03:53.588Z,-4.61
2022-12-25T09:06:21.220Z,-4.58
2022-12-25T09:08:50.065Z,-4.56
2022-12-25T09:11:18.777Z,-4.54
2022-12-25T09:13:46.467Z,-4.50
2022-12-25T09:16:17.010Z,-4.46
2022-12-25T09:18:44.782Z,-4.42
2022-12-25T09:21:13.402Z,-4.42
2022-12-25T09:23:41.469Z,-4.38
2022-12-25T09:26:10.044Z,-4.36
2022-12-25T09:28:37.648Z,-4.30
2022-12-25T09:31:05.464Z,-4.25
2022-12-25T09:33:34.547Z,-4.35
2022-12-25T09:36:03.427Z,-4.32
2022-12-25T09:38:31.365Z,-4.28
2022-12-25T09:40:59.756Z,-4.22
2022-12-25T09:43:29.583Z,-4.23
2022-12-25T09:45:57.958Z,-4.20
2022-12-25T09:48:26.011Z,-4.22
2022-12-25T09:50:58.831Z,-4.23
2022-12-25T09:53:28.462Z,-4.17
2022-12-25T09:56:00.104Z,-4.10
2022-12-25T09:58:28.149Z,-4.07
2022-12-25T10:00:59.432Z,-4.06
2022-12-25T10:03:34.708Z,-4.00
2022-12-25T10:06:18.624Z,-3.97
2022-12-25T10:09:06.904Z,-3.93
2022-12-25T10:11:42.604Z,-3.92
2022-12-25T10:14:17.490Z,-3.92
2022-12-25T10:16:49.220Z,-3.94
2022-12-25T10:19:23.099Z,-3.94
2022-12-25T10:21:53.661Z,-3.95
2022-12-25T10:24:24.623Z,-3.97
2022-12-25T10:26:53.064Z,-3.99
2022-12-25T10:29:21.316Z,-4.00
2022-12-25T10:31:50.776Z,-4.00
2022-12-25T10:34:18.572Z,-4.06
2022-12-25T10:36:46.823Z,-4.07
2022-12-25T10:39:18.546Z,-4.07
2022-12-25T10:41:54.432Z,-3.99
2022-12-25T10:44:24.575Z,-3.95
2022-12-25T10:46:53.712Z,-3.95
2022-12-25T10:49:22.110Z,-3.93
2022-12-25T10:51:50.076Z,-3.97
2022-12-25T10:54:23.779Z,-4.00
2022-12-25T10:56:54.955Z,-3.94
2022-12-25T10:59:23.372Z,-3.88
2022-12-25T11:01:55.004Z,-3.81
2022-12-25T11:04:25.751Z,-3.79
2022-12-25T11:06:57.559Z,-3.82
2022-12-25T11:09:26.767Z,-3.78
2022-12-25T11:11:54.821Z,-3.77
2022-12-25T11:14:23.274Z,-3.72
2022-12-25T11:16:51.501Z,-3.75
2022-12-25T11:19:27.185Z,-3.77
2022-12-25T11:21:55.853Z,-3.76
2022-12-25T11:24:26.276Z,-3.79
2022-12-25T11:26:56.401Z,-3.83
2022-12-25T11:29:26.813Z,-3.87
2022-12-25T11:31:56.124Z,-3.84
2022-12-25T11:34:29.586Z,-3.83
2022-12-25T11:36:59.340Z,-3.78
2022-12-25T11:39:28.908Z,-3.73
2022-12-25T11:42:00.521Z,-3.82
2022-12-25T11:44:34.528Z,-3.84
2022-12-25T11:47:04.749Z,-3.81
2022-12-25T11:49:48.815Z,-3.81
2022-12-25T11:52:18.410Z,-3.87
2022-12-25T11:54:51.504Z,-3.90
2022-12-25T11:57:20.830Z,-3.88
2022-12-25T11:59:52.200Z,-3.89
2022-12-25T12:02:24.655Z,-3.83
2022-12-25T12:04:56.477Z,-3.86
2022-12-25T12:07:26.260Z,-3.85
2022-12-25T12:09:58.959Z,-3.82
2022-12-25T12:12:33.048Z,-3.79
2022-12-25T12:15:05.060Z,-3.76
2022-12-25T12:17:33.200Z,-3.75
2022-12-25T12:20:11.200Z,-3.72
2022-12-25T12:22:39.015Z,-3.69
2022-12-25T12:25:07.865Z,-3.67
2022-12-25T12:27:38.647Z,-3.68
2022-12-25T12:30:07.025Z,-3.71
2022-12-25T12:32:37.103Z,-3.68
2022-12-25T12:35:15.653Z,-3.70
2022-12-25T12:37:44.097Z,-3.69
2022-12-25T12:40:24.567Z,-3.69
2022-12-25T12:42:53.682Z,-3.69
2022-12-25T12:45:24.721Z,-3.70
2022-12-25T12:47:53.587Z,-3.71
2022-12-25T12:50:29.476Z,-3.72
2022-12-25T12:52:57.474Z,-3.74
2022-12-25T12:55:29.920Z,-3.73
2022-12-25T12:58:01.582Z,-3.76
2022-12-25T13:00:34.796Z,-3.73
2022-12-25T13:03:27.209Z,-3.74
2022-12-25T13:05:57.238Z,-3.79
2022-12-25T13:08:33.307Z,-3.80
2022-12-25T13:11:06.556Z,-3.79
2022-12-25T13:13:37.972Z,-3.79
2022-12-25T13:16:07.406Z,-3.80
2022-12-25T13:18:35.248Z,-3.87
2022-12-25T13:21:04.272Z,-3.85
2022-12-25T13:23:33.384Z,-3.89
2022-12-25T13:26:01.897Z,-3.88
2022-12-25T13:28:30.283Z,-3.89
2022-12-25T13:31:06.991Z,-3.88
2022-12-25T13:33:34.912Z,-3.90
2022-12-25T13:36:02.701Z,-3.92
2022-12-25T13:38:30.444Z,-3.94
2022-12-25T13:41:16.807Z,-3.96
2022-12-25T13:43:45.658Z,-3.96
2022-12-25T13:46:15.608Z,-4.02
2022-12-25T13:48:43.726Z,-4.05
2022-12-25T13:51:15.468Z,-4.05
2022-12-25T13:53:43.730Z,-4.14
2022-12-25T13:56:14.657Z,-4.25
2022-12-25T13:58:42.499Z,-4.25
2022-12-25T14:01:12.688Z,-4.29
2022-12-25T14:03:45.488Z,-4.38
2022-12-25T14:06:18.259Z,-4.40
2022-12-25T14:08:46.143Z,-4.40
2022-12-25T14:11:16.058Z,-4.44
2022-12-25T14:13:44.822Z,-4.53
2022-12-25T14:16:12.937Z,-4.61
2022-12-25T14:18:50.996Z,-4.64
2022-12-25T14:21:24.192Z,-4.63
2022-12-25T14:23:51.874Z,-4.69
2022-12-25T14:26:20.540Z,-4.67
2022-12-25T14:28:49.610Z,-4.66
2022-12-25T14:31:17.842Z,-4.70
2022-12-25T14:33:47.465Z,-4.77
2022-12-25T14:36:15.463Z,-4.81
2022-12-25T14:38:44.207Z,-4.85
2022-12-25T14:41:25.926Z,-4.91
2022-12-25T14:43:54.776Z,-4.99
2022-12-25T14:46:24.223Z,-5.10
2022-12-25T14:49:00.850Z,-5.08
2022-12-25T14:51:29.314Z,-5.07
2022-12-25T14:53:57.834Z,-5.08
2022-12-25T14:56:26.714Z,-5.14
2022-12-25T14:58:55.805Z,-5.18
2022-12-25T15:01:27.328Z,-5.15
2022-12-25T15:04:05.879Z,-5.18
2022-12-25T15:06:33.529Z,-5.23
2022-12-25T15:09:02.811Z,-5.27
2022-12-25T15:11:30.661Z,-5.33
2022-12-25T15:13:58.875Z,-5.32
2022-12-25T15:16:28.001Z,-5.32
2022-12-25T15:18:55.827Z,-5.31
2022-12-25T15:21:27.324Z,-5.33
2022-12-25T15:23:55.527Z,-5.39
2022-12-25T15:26:23.214Z,-5.41
2022-12-25T15:28:51.031Z,-5.44
2022-12-25T15:31:20.863Z,-5.49
2022-12-25T15:33:48.666Z,-5.51
2022-12-25T15:36:16.504Z,-5.53
2022-12-25T15:38:45.724Z,-5.56
2022-12-25T15:41:35.775Z,-5.66
2022-12-25T15:44:03.876Z,-5.70
2022-12-25T15:46:31.839Z,-5.71
2022-12-25T15:48:59.499Z,-5.68
2022-12-25T15:51:27.211Z,-5.71
2022-12-25T15:53:56.346Z,-5.67
2022-12-25T15:56:24.444Z,-5.66
2022-12-25T15:58:52.282Z,-5.64
2022-12-25T16:01:21.074Z,-5.67
2022-12-25T16:03:49.015Z,-5.68
2022-12-25T16:06:17.835Z,-5.72
2022-12-25T16:08:46.636Z,-5.71
2022-12-25T16:11:15.824Z,-5.77
2022-12-25T16:13:43.550Z,-5.83
2022-12-25T16:16:11.340Z,-5.81
2022-12-25T16:18:46.720Z,-5.80
2022-12-25T16:21:16.096Z,-5.74
2022-12-25T16:23:44.060Z,-5.72
2022-12-25T16:26:12.099Z,-5.72
2022-12-25T16:28:41.215Z,-5.65
2022-12-25T16:31:09.031Z,-5.60
2022-12-25T16:33:36.777Z,-5.62
2022-12-25T16:36:04.633Z,-5.55
2022-12-25T16:38:33.910Z,-5.49
2022-12-25T16:41:02.701Z,-5.44
2022-12-25T16:43:30.394Z,-5.38
2022-12-25T16:45:59.611Z,-5.34
2022-12-25T16:48:27.336Z,-5.29
2022-12-25T16:50:55.016Z,-5.22
2022-12-25T16:53:22.728Z,-5.18
2022-12-25T16:55:50.390Z,-5.13
2022-12-25T16:58:18.357Z,-5.10
2022-12-25T17:00:49.451Z,-5.04
2022-12-25T17:03:18.903Z,-5.00
2022-12-25T17:05:46.766Z,-4.97
2022-12-25T17:08:14.429Z,-4.96
2022-12-25T17:10:42.420Z,-4.94
2022-12-25T17:13:10.154Z,-4.92
2022-12-25T17:15:37.978Z,-4.95
2022-12-25T17:18:05.686Z,-4.97
2022-12-25T17:20:36.073Z,-5.02
2022-12-25T17:23:03.819Z,-5.07
2022-12-25T17:25:31.504Z,-5.13
2022-12-25T17:27:59.134Z,-5.23
2022-12-25T17:30:26.747Z,-5.27
2022-12-25T17:32:55.280Z,-5.23
2022-12-25T17:35:23.504Z,-5.22
2022-12-25T17:37:52.687Z,-5.21
2022-12-25T17:40:20.437Z,-5.13
2022-12-25T17:42:52.808Z,-5.10
2022-12-25T17:45:20.549Z,-5.03
2022-12-25T17:47:48.360Z,-4.99
2022-12-25T17:50:16.167Z,-4.97
2022-12-25T17:52:43.806Z,-4.94
2022-12-25T17:55:12.863Z,-4.93
2022-12-25T17:57:41.443Z,-4.91
2022-12-25T18:00:09.540Z,-4.93
2022-12-25T18:02:38.054Z,-4.96
2022-12-25T18:05:06.171Z,-4.99
2022-12-25T18:07:34.202Z,-5.02
2022-12-25T18:10:01.966Z,-5.05
2022-12-25T18:12:31.151Z,-5.04
2022-12-25T18:14:58.840Z,-5.03
2022-12-25T18:17:26.506Z,-5.02
2022-12-25T18:19:54.307Z,-5.08
2022-12-25T18:22:22.196Z,-5.10
2022-12-25T18:24:49.823Z,-5.19
2022-12-25T18:27:17.530Z,-5.16
2022-12-25T18:29:46.780Z,-5.13
2022-12-25T18:32:14.549Z,-5.04
2022-12-25T18:34:42.239Z,-4.97
2022-12-25T18:37:09.968Z,-4.76
2022-12-25T18:39:37.643Z,-4.45
2022-12-25T18:42:23.072Z,-4.00
2022-12-25T18:44:52.105Z,-3.73
2022-12-25T18:47:19.992Z,-3.40
2022-12-25T18:49:48.644Z,-3.12
2022-12-25T18:52:48.202Z,-2.96
2022-12-25T18:55:04.345Z,-2.79
2022-12-25T18:57:32.864Z,-2.40
2022-12-25T19:00:02.237Z,-2.25
2022-12-25T19:02:30.032Z,-2.25
2022-12-25T19:04:57.803Z,-2.07
2022-12-25T19:07:25.523Z,-1.99
2022-12-25T19:09:53.190Z,-1.95
2022-12-25T19:12:20.876Z,-1.85
2022-12-25T19:14:48.696Z,-1.69
2022-12-25T19:17:18.374Z,-1.54
2022-12-25T19:19:46.060Z,-1.43
2022-12-25T19:22:13.690Z,-1.34
2022-12-25T19:24:41.447Z,-1.19
2022-12-25T19:27:09.071Z,-1.10
2022-12-25T19:29:36.829Z,-1.05
2022-12-25T19:32:04.829Z,-0.98
2022-12-25T19:34:33.861Z,-0.91
2022-12-25T19:37:01.599Z,-0.83
2022-12-25T19:39:29.236Z,-0.77
2022-12-25T19:41:56.916Z,-0.72
2022-12-25T19:44:24.767Z,-0.65
2022-12-25T19:46:53.472Z,-0.60
2022-12-25T19:49:21.183Z,-0.52
2022-12-25T19:51:50.296Z,-0.47
2022-12-25T19:54:20.572Z,-0.41
2022-12-25T19:56:48.537Z,-0.36
2022-12-25T19:59:16.763Z,-0.36
2022-12-25T20:01:44.751Z,-0.28
2022-12-25T20:04:12.715Z,-0.25
2022-12-25T20:06:42.618Z,-0.25
2022-12-25T20:09:12.821Z,-0.13
2022-12-25T20:11:41.052Z,-0.07
2022-12-25T20:14:09.325Z,-0.05
2022-12-25T20:16:37.601Z,-0.10
2022-12-25T20:19:07.440Z,0.00
2022-12-25T20:21:35.166Z,0.06
2022-12-25T20:24:03.088Z,0.13
2022-12-25T20:26:32.221Z,0.15
2022-12-25T20:29:00.434Z,0.24
2022-12-25T20:31:29.498Z,0.27
2022-12-25T20:33:58.511Z,0.31
2022-12-25T20:36:31.198Z,0.39
2022-12-25T20:39:04.384Z,0.50
2022-12-25T20:41:33.434Z,0.51
2022-12-25T20:44:02.029Z,0.53
2022-12-25T20:46:29.844Z,0.59
2022-12-25T20:48:57.979Z,0.61
2022-12-25T20:51:26.976Z,0.68
2022-12-25T20:53:55.238Z,0.70
2022-12-25T20:56:23.883Z,0.72
2022-12-25T20:58:55.376Z,0.82
2022-12-25T21:01:23.124Z,0.89
2022-12-25T21:03:51.113Z,0.88
2022-12-25T21:06:18.862Z,0.93
2022-12-25T21:08:46.544Z,0.94
2022-12-25T21:11:15.662Z,0.98
2022-12-25T21:13:45.276Z,1.00
2022-12-25T21:16:15.281Z,1.03
2022-12-25T21:18:43.261Z,1.05
2022-12-25T21:21:10.955Z,1.04
2022-12-25T21:23:39.592Z,1.04
2022-12-25T21:26:11.035Z,1.06
2022-12-25T21:28:38.812Z,1.04
2022-12-25T21:31:07.538Z,1.06
2022-12-25T21:33:57.658Z,1.04
2022-12-25T21:36:27.217Z,1.06
2022-12-25T21:38:55.960Z,1.06
2022-12-25T21:41:23.925Z,1.07
2022-12-25T21:43:52.096Z,1.09
2022-12-25T21:46:20.595Z,1.09
2022-12-25T21:48:49.834Z,1.08
2022-12-25T21:51:50.692Z,1.09
2022-12-25T21:54:19.156Z,1.12
2022-12-25T21:56:47.546Z,1.11
2022-12-25T21:59:16.173Z,1.12
2022-12-25T22:01:44.551Z,1.12
2022-12-25T22:04:14.410Z,1.14
2022-12-25T22:06:59.721Z,1.15
2022-12-25T22:09:27.649Z,1.14
2022-12-25T22:12:15.111Z,1.09
2022-12-25T22:14:56.611Z,1.09
2022-12-25T22:17:42.801Z,1.10
2022-12-25T22:20:14.582Z,1.10
2022-12-25T22:22:42.522Z,1.13
2022-12-25T22:25:10.921Z,1.15
2022-12-25T22:27:39.506Z,1.15
2022-12-25T22:30:08.463Z,1.15
2022-12-25T22:32:36.199Z,1.19
2022-12-25T22:35:04.015Z,1.19
2022-12-25T22:37:33.135Z,1.19
2022-12-25T22:40:02.515Z,1.21
2022-12-25T22:42:30.262Z,1.21
2022-12-25T22:44:58.016Z,1.22
2022-12-25T22:47:25.711Z,1.25
2022-12-25T22:49:53.432Z,1.26
2022-12-25T22:52:21.147Z,1.22
2022-12-25T22:54:50.268Z,1.30
2022-12-25T22:57:17.887Z,1.25
2022-12-25T22:59:45.580Z,1.25
2022-12-25T23:02:13.387Z,1.25
2022-12-25T23:04:44.039Z,1.25
2022-12-25T23:07:14.334Z,1.28
2022-12-25T23:09:42.304Z,1.31
2022-12-25T23:12:32.466Z,1.30
2022-12-25T23:14:59.160Z,1.28
2022-12-25T23:17:44.329Z,1.26
2022-12-25T23:20:31.847Z,1.25
2022-12-25T23:23:17.188Z,1.25
2022-12-25T23:26:02.328Z,1.28
2022-12-25T23:28:49.874Z,1.28
2022-12-25T23:31:17.769Z,1.27
2022-12-25T23:33:45.503Z,1.31
2022-12-25T23:36:13.183Z,1.34
2022-12-25T23:38:42.084Z,1.32
2022-12-25T23:41:09.824Z,1.35
2022-12-25T23:43:38.883Z,1.36
2022-12-25T23:46:06.928Z,1.39
2022-12-25T23:48:34.735Z,1.40
2022-12-25T23:51:03.391Z,1.40
2022-12-25T23:53:31.124Z,1.42
2022-12-25T23:55:58.766Z,1.44
2022-12-25T23:58:26.925Z,1.45
